Time;durP1;ratioP1;P1;durP2;ratioP2;P2;SDS_P1;SDS_P2;PMS_P1;PMS_P2;Temp;Humidity;BMP_temperature;BMP_pressure;BME280_temperature;BME280_humidity;BME280_pressure;Samples;Min_cycle;Max_cycle;Signal;HPM_P1;HPM_P2
2022/03/09 00:00:29;;;;;;;30.42;12.55;;;;;;;;;;5036842;28;20052;-73
2022/03/09 00:02:57;;;;;;;24.92;12.18;;;;;;;;;;5034814;28;20072;-73
2022/03/09 00:05:25;;;;;;;27.42;12.13;;;;;;;;;;5033929;28;20076;-73
2022/03/09 00:07:54;;;;;;;25.58;11.52;;;;;;;;;;5031680;28;20044;-73
2022/03/09 00:10:23;;;;;;;25.08;12.57;;;;;;;;;;5035621;28;20246;-73
2022/03/09 00:12:52;;;;;;;27.05;12.35;;;;;;;;;;5031658;28;20711;-73
2022/03/09 00:15:19;;;;;;;28.90;12.23;;;;;;;;;;5031714;28;20138;-73
2022/03/09 00:17:47;;;;;;;25.33;11.32;;;;;;;;;;5030255;28;20103;-73
2022/03/09 00:20:15;;;;;;;25.05;13.13;;;;;;;;;;5032580;28;20056;-73
2022/03/09 00:22:46;;;;;;;27.67;11.90;;;;;;;;;;5035411;28;20489;-72
2022/03/09 00:25:15;;;;;;;25.25;12.20;;;;;;;;;;5033070;28;20052;-72
2022/03/09 00:27:42;;;;;;;29.10;12.57;;;;;;;;;;5031275;28;20049;-72
2022/03/09 00:30:11;;;;;;;24.27;11.50;;;;;;;;;;5034847;28;20056;-73
2022/03/09 00:32:39;;;;;;;24.75;11.98;;;;;;;;;;5032414;28;20099;-73
2022/03/09 00:35:07;;;;;;;28.60;12.57;;;;;;;;;;5031858;28;20494;-73
2022/03/09 00:37:35;;;;;;;30.20;12.88;;;;;;;;;;5032047;28;20056;-73
2022/03/09 00:40:03;;;;;;;22.83;11.13;;;;;;;;;;5035886;28;20238;-73
2022/03/09 00:42:36;;;;;;;27.77;11.48;;;;;;;;;;5034331;28;20053;-73
2022/03/09 00:45:04;;;;;;;26.58;12.18;;;;;;;;;;5041911;28;20095;-74
2022/03/09 00:47:35;;;;;;;25.38;11.95;;;;;;;;;;5039004;28;20057;-73
2022/03/09 00:50:04;;;;;;;27.23;12.15;;;;;;;;;;5039395;28;20547;-73
2022/03/09 00:52:31;;;;;;;24.15;10.93;;;;;;;;;;5036068;28;20080;-73
2022/03/09 00:54:59;;;;;;;26.35;11.15;;;;;;;;;;5036394;28;20616;-73
2022/03/09 00:57:26;;;;;;;27.30;12.43;;;;;;;;;;5039074;28;20143;-73
2022/03/09 00:59:57;;;;;;;25.27;12.00;;;;;;;;;;5040447;28;20052;-74
2022/03/09 01:02:24;;;;;;;27.83;12.05;;;;;;;;;;5038489;28;20155;-75
2022/03/09 01:04:52;;;;;;;26.50;12.95;;;;;;;;;;5036959;28;20053;-74
2022/03/09 01:07:20;;;;;;;27.60;11.10;;;;;;;;;;5036240;28;20064;-74
2022/03/09 01:09:47;;;;;;;31.60;13.80;;;;;;;;;;5036397;28;20045;-74
2022/03/09 01:12:15;;;;;;;28.33;13.30;;;;;;;;;;5037156;28;20912;-74
2022/03/09 01:14:43;;;;;;;34.53;12.82;;;;;;;;;;5037610;28;20543;-74
2022/03/09 01:17:12;;;;;;;25.90;10.93;;;;;;;;;;5035793;28;20069;-74
2022/03/09 01:19:39;;;;;;;25.23;11.43;;;;;;;;;;5038084;28;20049;-72
2022/03/09 01:22:07;;;;;;;20.95;11.52;;;;;;;;;;5032970;28;20056;-74
2022/03/09 01:24:35;;;;;;;22.00;11.13;;;;;;;;;;5037162;28;20128;-72
2022/03/09 01:27:02;;;;;;;24.17;10.93;;;;;;;;;;5035708;28;20122;-73
2022/03/09 01:29:30;;;;;;;25.80;11.55;;;;;;;;;;5037784;28;20095;-72
2022/03/09 01:31:57;;;;;;;23.83;11.45;;;;;;;;;;5035486;28;21275;-72
2022/03/09 01:34:26;;;;;;;25.80;11.95;;;;;;;;;;5040082;28;20080;-72
2022/03/09 01:36:54;;;;;;;25.38;11.82;;;;;;;;;;5034296;28;20051;-74
2022/03/09 01:39:22;;;;;;;25.70;11.45;;;;;;;;;;5039450;28;20102;-74
2022/03/09 01:41:51;;;;;;;26.02;11.68;;;;;;;;;;5036305;28;20123;-74
2022/03/09 01:44:19;;;;;;;23.60;9.30;;;;;;;;;;5035260;28;20124;-75
2022/03/09 01:46:48;;;;;;;21.70;11.05;;;;;;;;;;5032894;28;20150;-73
2022/03/09 01:49:18;;;;;;;24.02;11.57;;;;;;;;;;5038538;28;20497;-74
2022/03/09 01:52:12;;;;;;;20.75;11.68;;;;;;;;;;5034599;28;20113;-73
2022/03/09 01:54:40;;;;;;;25.20;12.35;;;;;;;;;;5032719;28;20048;-74
2022/03/09 01:57:08;;;;;;;25.13;11.55;;;;;;;;;;5036695;28;20083;-74
2022/03/09 01:59:36;;;;;;;29.45;11.23;;;;;;;;;;5036031;28;20052;-74
2022/03/09 02:02:04;;;;;;;21.10;11.77;;;;;;;;;;5037564;28;20144;-75
2022/03/09 02:04:32;;;;;;;24.95;12.00;;;;;;;;;;5034350;28;20052;-74
2022/03/09 02:07:00;;;;;;;25.35;12.13;;;;;;;;;;5039391;28;20132;-74
2022/03/09 02:09:44;;;;;;;26.05;11.10;;;;;;;;;;5038099;28;20136;-75
2022/03/09 02:12:13;;;;;;;25.98;10.52;;;;;;;;;;5037939;28;20064;-75
2022/03/09 02:14:42;;;;;;;22.80;10.30;;;;;;;;;;5032007;28;20634;-74
2022/03/09 02:17:11;;;;;;;26.63;11.90;;;;;;;;;;5035179;28;20045;-75
2022/03/09 02:19:39;;;;;;;28.30;11.68;;;;;;;;;;5035524;28;20092;-75
2022/03/09 02:22:08;;;;;;;24.63;12.20;;;;;;;;;;5034564;28;20091;-75
2022/03/09 02:24:37;;;;;;;21.88;10.68;;;;;;;;;;5035619;28;20053;-74
2022/03/09 02:27:04;;;;;;;22.55;11.52;;;;;;;;;;5032758;28;20045;-75
2022/03/09 02:29:32;;;;;;;23.60;10.25;;;;;;;;;;5031098;28;20080;-75
2022/03/09 02:32:00;;;;;;;23.58;10.93;;;;;;;;;;5035873;28;20136;-75
2022/03/09 02:34:28;;;;;;;20.95;10.43;;;;;;;;;;5037051;28;20134;-75
2022/03/09 02:36:56;;;;;;;23.63;10.77;;;;;;;;;;5034390;28;20130;-74
2022/03/09 02:39:24;;;;;;;21.08;11.10;;;;;;;;;;5034870;28;20048;-75
2022/03/09 02:41:53;;;;;;;24.23;11.18;;;;;;;;;;5029409;28;20462;-75
2022/03/09 02:44:21;;;;;;;22.65;12.13;;;;;;;;;;5033885;28;20053;-74
2022/03/09 02:46:49;;;;;;;23.30;11.45;;;;;;;;;;5034823;28;20652;-74
2022/03/09 02:49:17;;;;;;;26.13;11.50;;;;;;;;;;5036820;28;20068;-74
2022/03/09 02:51:45;;;;;;;25.60;12.25;;;;;;;;;;5033208;28;20080;-74
2022/03/09 02:54:12;;;;;;;24.75;11.80;;;;;;;;;;5029906;28;20160;-74
2022/03/09 02:57:06;;;;;;;27.88;11.18;;;;;;;;;;5031569;28;20091;-72
2022/03/09 02:59:59;;;;;;;27.73;12.57;;;;;;;;;;5033175;28;20067;-73
2022/03/09 03:02:26;;;;;;;26.17;11.55;;;;;;;;;;5035429;28;20087;-72
2022/03/09 03:04:54;;;;;;;28.10;12.32;;;;;;;;;;5031401;28;20072;-72
2022/03/09 03:07:22;;;;;;;21.27;10.80;;;;;;;;;;5036449;28;20338;-72
2022/03/09 03:09:49;;;;;;;26.13;11.60;;;;;;;;;;5035903;28;20061;-73
2022/03/09 03:12:18;;;;;;;23.25;10.45;;;;;;;;;;5036085;28;20059;-74
2022/03/09 03:14:46;;;;;;;28.15;11.82;;;;;;;;;;5033307;28;20384;-74
2022/03/09 03:17:14;;;;;;;22.73;11.50;;;;;;;;;;5033540;28;20049;-73
2022/03/09 03:19:41;;;;;;;25.70;12.10;;;;;;;;;;5030713;28;20045;-74
2022/03/09 03:22:09;;;;;;;23.38;10.63;;;;;;;;;;5034838;28;20552;-72
2022/03/09 03:24:36;;;;;;;25.52;12.68;;;;;;;;;;5032392;28;20154;-73
2022/03/09 03:27:04;;;;;;;25.50;11.85;;;;;;;;;;5032898;28;20053;-74
2022/03/09 03:29:33;;;;;;;25.30;11.63;;;;;;;;;;5029531;28;20501;-74
2022/03/09 03:32:02;;;;;;;23.15;12.38;;;;;;;;;;5033448;28;20061;-74
2022/03/09 03:34:29;;;;;;;27.52;11.30;;;;;;;;;;5032057;28;20136;-74
2022/03/09 03:36:58;;;;;;;20.90;10.48;;;;;;;;;;5034769;28;20056;-74
2022/03/09 03:39:25;;;;;;;25.13;11.80;;;;;;;;;;5031121;28;20115;-74
2022/03/09 03:41:53;;;;;;;22.90;11.18;;;;;;;;;;5032051;28;20051;-74
2022/03/09 03:44:20;;;;;;;22.38;11.00;;;;;;;;;;5035123;28;20551;-74
2022/03/09 03:47:14;;;;;;;21.63;10.98;;;;;;;;;;5033812;28;20135;-74
2022/03/09 03:50:06;;;;;;;23.02;10.05;;;;;;;;;;5035392;28;20095;-74
2022/03/09 03:52:33;;;;;;;26.05;12.20;;;;;;;;;;5031098;28;20115;-74
2022/03/09 03:55:01;;;;;;;25.95;11.70;;;;;;;;;;5030670;28;20582;-75
2022/03/09 03:57:29;;;;;;;25.17;11.27;;;;;;;;;;5031485;28;20080;-74
2022/03/09 03:59:58;;;;;;;23.38;11.05;;;;;;;;;;5028387;28;20091;-74
2022/03/09 04:02:27;;;;;;;27.65;11.32;;;;;;;;;;5034291;28;20075;-74
2022/03/09 04:04:55;;;;;;;24.15;11.40;;;;;;;;;;5029633;28;20132;-74
2022/03/09 04:07:23;;;;;;;25.27;11.73;;;;;;;;;;5030673;28;20059;-74
2022/03/09 04:09:50;;;;;;;27.00;11.70;;;;;;;;;;5031443;28;20079;-74
2022/03/09 04:12:18;;;;;;;26.77;10.93;;;;;;;;;;5035658;28;20053;-74
2022/03/09 04:14:46;;;;;;;22.58;10.05;;;;;;;;;;5032689;28;20059;-74
2022/03/09 04:17:16;;;;;;;25.27;10.00;;;;;;;;;;5031355;28;20124;-74
2022/03/09 04:19:45;;;;;;;25.58;12.00;;;;;;;;;;5031499;28;20083;-72
2022/03/09 04:22:12;;;;;;;20.58;9.63;;;;;;;;;;5035404;28;20055;-73
2022/03/09 04:24:40;;;;;;;24.70;11.30;;;;;;;;;;5033970;28;20147;-73
2022/03/09 04:27:08;;;;;;;21.92;10.70;;;;;;;;;;5033094;28;20351;-74
2022/03/09 04:29:36;;;;;;;22.67;9.32;;;;;;;;;;5031994;28;20072;-73
2022/03/09 04:32:07;;;;;;;21.48;10.35;;;;;;;;;;5033057;28;20053;-74
2022/03/09 04:34:36;;;;;;;25.38;10.63;;;;;;;;;;5032084;28;20094;-72
2022/03/09 04:37:06;;;;;;;22.60;9.65;;;;;;;;;;5032278;28;20059;-73
2022/03/09 04:39:34;;;;;;;24.20;9.95;;;;;;;;;;5035299;28;20076;-72
2022/03/09 04:42:02;;;;;;;21.92;10.57;;;;;;;;;;5035774;28;20084;-72
2022/03/09 04:44:29;;;;;;;20.63;9.95;;;;;;;;;;5032829;28;20160;-75
2022/03/09 04:46:57;;;;;;;21.17;9.65;;;;;;;;;;5033960;28;20057;-73
2022/03/09 04:49:50;;;;;;;25.02;10.77;;;;;;;;;;5034199;28;20543;-73
2022/03/09 04:52:20;;;;;;;18.50;9.57;;;;;;;;;;5028382;28;20085;-74
2022/03/09 04:54:48;;;;;;;18.83;9.82;;;;;;;;;;5034272;28;20083;-73
2022/03/09 04:57:16;;;;;;;21.15;10.73;;;;;;;;;;5035096;28;20052;-72
2022/03/09 04:59:44;;;;;;;22.17;10.48;;;;;;;;;;5031591;28;20053;-72
2022/03/09 05:02:12;;;;;;;23.95;11.15;;;;;;;;;;5031814;28;20053;-72
2022/03/09 05:04:40;;;;;;;21.13;10.57;;;;;;;;;;5033616;28;20167;-73
2022/03/09 05:07:08;;;;;;;21.50;10.35;;;;;;;;;;5032106;28;20510;-76
2022/03/09 05:09:38;;;;;;;19.98;11.45;;;;;;;;;;5031781;28;20048;-73
2022/03/09 05:12:07;;;;;;;24.20;11.10;;;;;;;;;;5032328;28;20052;-75
2022/03/09 05:14:35;;;;;;;18.83;10.25;;;;;;;;;;5034144;28;20055;-75
2022/03/09 05:17:03;;;;;;;21.13;10.93;;;;;;;;;;5029560;28;20049;-75
2022/03/09 05:19:30;;;;;;;22.92;10.85;;;;;;;;;;5032192;28;20461;-72
2022/03/09 05:21:58;;;;;;;21.13;10.52;;;;;;;;;;5027195;28;20144;-73
2022/03/09 05:24:47;;;;;;;21.73;11.02;;;;;;;;;;5034501;28;20181;-73
2022/03/09 05:27:15;;;;;;;23.17;11.15;;;;;;;;;;5033628;28;20064;-73
2022/03/09 05:29:43;;;;;;;25.25;10.43;;;;;;;;;;5035196;28;20053;-73
2022/03/09 05:32:11;;;;;;;24.15;10.88;;;;;;;;;;5034675;28;20426;-75
2022/03/09 05:34:39;;;;;;;23.75;10.90;;;;;;;;;;5037953;28;20471;-73
2022/03/09 05:37:06;;;;;;;24.65;10.27;;;;;;;;;;5036458;28;20060;-73
2022/03/09 05:39:34;;;;;;;23.10;11.00;;;;;;;;;;5034649;28;20063;-72
2022/03/09 05:42:27;;;;;;;26.65;12.75;;;;;;;;;;5037556;28;20118;-73
2022/03/09 05:44:55;;;;;;;28.90;12.82;;;;;;;;;;5037224;28;20052;-73
2022/03/09 05:47:42;;;;;;;26.67;12.40;;;;;;;;;;5037406;28;20065;-73
2022/03/09 05:50:10;;;;;;;29.10;13.05;;;;;;;;;;5034708;28;20049;-73
2022/03/09 05:53:01;;;;;;;22.10;12.13;;;;;;;;;;5030689;28;20064;-73
2022/03/09 05:55:29;;;;;;;25.67;11.30;;;;;;;;;;5033729;28;20049;-73
2022/03/09 05:57:58;;;;;;;24.52;11.05;;;;;;;;;;5037576;28;20141;-74
2022/03/09 06:00:26;;;;;;;30.40;12.45;;;;;;;;;;5035473;28;20045;-73
2022/03/09 06:03:17;;;;;;;24.70;11.38;;;;;;;;;;5037394;28;20056;-74
2022/03/09 06:05:47;;;;;;;24.85;10.57;;;;;;;;;;5033571;28;20048;-74
2022/03/09 06:08:15;;;;;;;25.48;12.35;;;;;;;;;;5036184;28;20135;-74
2022/03/09 06:10:43;;;;;;;20.73;10.77;;;;;;;;;;5032775;28;20059;-74
2022/03/09 06:13:12;;;;;;;27.30;11.73;;;;;;;;;;5034408;28;20147;-74
2022/03/09 06:15:39;;;;;;;27.52;11.65;;;;;;;;;;5036590;28;20517;-74
2022/03/09 06:18:08;;;;;;;26.20;11.85;;;;;;;;;;5038815;28;20106;-74
2022/03/09 06:20:36;;;;;;;25.38;11.50;;;;;;;;;;5032126;28;20045;-75
2022/03/09 06:23:04;;;;;;;26.17;12.18;;;;;;;;;;5035313;28;20049;-74
2022/03/09 06:25:34;;;;;;;25.88;12.43;;;;;;;;;;5035135;28;20061;-74
2022/03/09 06:28:02;;;;;;;24.02;11.45;;;;;;;;;;5033433;28;20057;-74
2022/03/09 06:30:31;;;;;;;22.98;11.48;;;;;;;;;;5038381;28;20067;-74
2022/03/09 06:32:59;;;;;;;26.73;11.73;;;;;;;;;;5036280;28;20067;-73
2022/03/09 06:35:27;;;;;;;28.92;12.35;;;;;;;;;;5035821;28;20505;-74
2022/03/09 06:37:57;;;;;;;22.45;11.90;;;;;;;;;;5034670;28;20051;-73
2022/03/09 06:40:25;;;;;;;31.27;12.30;;;;;;;;;;5033266;28;20045;-73
2022/03/09 06:42:53;;;;;;;26.80;12.48;;;;;;;;;;5033148;28;20061;-73
2022/03/09 06:45:25;;;;;;;23.60;11.32;;;;;;;;;;5039560;28;20064;-73
2022/03/09 06:47:54;;;;;;;26.15;12.25;;;;;;;;;;5033676;28;20062;-73
2022/03/09 06:50:21;;;;;;;28.23;11.15;;;;;;;;;;5035942;28;20500;-73
2022/03/09 06:52:50;;;;;;;28.55;12.13;;;;;;;;;;5032085;28;20051;-73
2022/03/09 06:55:23;;;;;;;24.85;11.63;;;;;;;;;;5034479;28;20045;-73
2022/03/09 06:57:50;;;;;;;25.70;12.02;;;;;;;;;;5030847;28;20126;-73
2022/03/09 07:00:19;;;;;;;22.95;12.10;;;;;;;;;;5035273;28;20207;-73
2022/03/09 07:02:47;;;;;;;29.13;12.23;;;;;;;;;;5032707;28;20048;-73
2022/03/09 07:05:16;;;;;;;25.50;11.35;;;;;;;;;;5035265;28;20056;-73
2022/03/09 07:07:44;;;;;;;26.20;12.02;;;;;;;;;;5031469;28;20049;-73
2022/03/09 07:10:13;;;;;;;23.38;11.55;;;;;;;;;;5035689;28;20572;-73
2022/03/09 07:12:42;;;;;;;29.77;12.40;;;;;;;;;;5030170;28;20148;-73
2022/03/09 07:15:11;;;;;;;26.50;11.73;;;;;;;;;;5030854;28;20517;-73
2022/03/09 07:17:39;;;;;;;26.17;12.73;;;;;;;;;;5028492;28;20037;-74
2022/03/09 07:20:07;;;;;;;24.33;11.73;;;;;;;;;;5035139;28;20847;-74
2022/03/09 07:22:39;;;;;;;29.92;13.13;;;;;;;;;;5036131;28;20060;-74
2022/03/09 07:25:08;;;;;;;25.95;11.43;;;;;;;;;;5030958;28;20057;-74
2022/03/09 07:28:00;;;;;;;29.33;12.50;;;;;;;;;;5036726;28;20540;-74
2022/03/09 07:30:27;;;;;;;24.40;11.98;;;;;;;;;;5033768;28;20166;-74
2022/03/09 07:32:57;;;;;;;30.40;12.88;;;;;;;;;;5037157;28;20172;-74
2022/03/09 07:35:25;;;;;;;23.83;12.57;;;;;;;;;;5031508;28;20045;-75
2022/03/09 07:37:54;;;;;;;28.33;11.75;;;;;;;;;;5033550;28;20125;-73
2022/03/09 07:40:21;;;;;;;28.67;12.98;;;;;;;;;;5036065;28;20055;-73
2022/03/09 07:42:49;;;;;;;25.05;13.02;;;;;;;;;;5036826;28;20144;-75
2022/03/09 07:45:22;;;;;;;26.63;12.53;;;;;;;;;;5033840;28;20056;-74
2022/03/09 07:47:50;;;;;;;24.75;12.48;;;;;;;;;;5035248;28;20488;-74
2022/03/09 07:50:19;;;;;;;29.52;11.90;;;;;;;;;;5036471;28;20128;-75
2022/03/09 07:52:46;;;;;;;31.30;13.52;;;;;;;;;;5029302;28;20563;-75
2022/03/09 07:55:16;;;;;;;27.05;12.30;;;;;;;;;;5033884;28;20489;-74
2022/03/09 07:57:44;;;;;;;23.77;12.63;;;;;;;;;;5035433;28;20541;-74
2022/03/09 08:00:13;;;;;;;24.98;12.18;;;;;;;;;;5033103;28;20445;-73
2022/03/09 08:02:41;;;;;;;32.75;14.02;;;;;;;;;;5033496;28;20698;-73
2022/03/09 08:05:10;;;;;;;29.45;12.05;;;;;;;;;;5029547;28;20064;-74
2022/03/09 08:07:38;;;;;;;22.15;12.25;;;;;;;;;;5034348;28;20450;-73
2022/03/09 08:10:11;;;;;;;32.08;13.48;;;;;;;;;;5034578;28;20061;-73
2022/03/09 08:12:40;;;;;;;27.88;13.27;;;;;;;;;;5032344;28;20133;-73
2022/03/09 08:15:31;;;;;;;24.70;10.73;;;;;;;;;;5030471;28;20102;-73
2022/03/09 08:17:59;;;;;;;26.00;12.82;;;;;;;;;;5033435;28;20581;-72
2022/03/09 08:20:27;;;;;;;32.70;13.32;;;;;;;;;;5029640;28;20056;-73
2022/03/09 08:22:55;;;;;;;29.30;13.50;;;;;;;;;;5033846;28;20092;-72
2022/03/09 08:25:23;;;;;;;24.00;12.50;;;;;;;;;;5033190;28;20060;-73
2022/03/09 08:27:52;;;;;;;26.80;12.77;;;;;;;;;;5031236;28;20080;-73
2022/03/09 08:30:21;;;;;;;29.25;13.98;;;;;;;;;;5032825;28;20080;-74
2022/03/09 08:32:50;;;;;;;29.55;13.13;;;;;;;;;;5029213;28;20045;-73
2022/03/09 08:35:18;;;;;;;25.38;13.35;;;;;;;;;;5035587;28;20053;-74
2022/03/09 08:37:46;;;;;;;26.27;13.57;;;;;;;;;;5026278;28;20049;-74
2022/03/09 08:40:15;;;;;;;32.30;17.05;;;;;;;;;;5029627;28;20206;-74
2022/03/09 08:42:43;;;;;;;30.48;13.35;;;;;;;;;;5030971;28;20051;-76
2022/03/09 08:45:13;;;;;;;26.08;12.88;;;;;;;;;;5027930;28;20419;-74
2022/03/09 08:47:40;;;;;;;27.88;14.18;;;;;;;;;;5032868;28;20053;-73
2022/03/09 08:50:09;;;;;;;29.05;12.98;;;;;;;;;;5029368;28;20148;-74
2022/03/09 08:52:57;;;;;;;32.08;13.57;;;;;;;;;;5026705;28;20055;-74
2022/03/09 08:55:25;;;;;;;28.83;14.75;;;;;;;;;;5031942;28;20121;-73
2022/03/09 08:57:52;;;;;;;27.23;12.93;;;;;;;;;;5031654;28;21214;-73
2022/03/09 09:00:37;;;;;;;25.58;14.70;;;;;;;;;;5028716;28;20064;-73
2022/03/09 09:03:04;;;;;;;30.38;14.95;;;;;;;;;;5030760;28;20511;-74
2022/03/09 09:05:33;;;;;;;29.25;14.18;;;;;;;;;;5031435;28;20132;-75
2022/03/09 09:08:00;;;;;;;27.52;14.25;;;;;;;;;;5038248;28;20057;-74
2022/03/09 09:10:33;;;;;;;31.23;13.68;;;;;;;;;;5036016;28;20040;-75
2022/03/09 09:13:00;;;;;;;32.30;15.20;;;;;;;;;;5036963;28;20077;-74
2022/03/09 09:15:29;;;;;;;32.47;15.65;;;;;;;;;;5035158;28;20052;-75
2022/03/09 09:17:59;;;;;;;32.47;15.10;;;;;;;;;;5034645;28;20041;-75
2022/03/09 09:20:47;;;;;;;30.35;14.45;;;;;;;;;;5032842;28;20060;-73
2022/03/09 09:23:15;;;;;;;28.48;14.48;;;;;;;;;;5035315;28;20041;-75
2022/03/09 09:25:44;;;;;;;31.42;15.15;;;;;;;;;;5036357;28;20041;-75
2022/03/09 09:28:12;;;;;;;31.80;15.30;;;;;;;;;;5039430;28;20263;-74
2022/03/09 09:31:04;;;;;;;32.85;14.35;;;;;;;;;;5037275;28;20044;-75
2022/03/09 09:33:33;;;;;;;32.28;15.05;;;;;;;;;;5036710;28;20055;-79
2022/03/09 09:36:02;;;;;;;35.78;15.43;;;;;;;;;;5035621;28;20083;-75
2022/03/09 09:38:29;;;;;;;32.85;16.25;;;;;;;;;;5037912;28;20066;-75
2022/03/09 09:40:57;;;;;;;29.58;15.07;;;;;;;;;;5034497;28;20056;-73
2022/03/09 09:43:25;;;;;;;37.53;17.55;;;;;;;;;;5036155;28;20046;-73
2022/03/09 09:45:53;;;;;;;29.77;15.18;;;;;;;;;;5034975;28;20567;-75
2022/03/09 09:48:22;;;;;;;32.65;15.60;;;;;;;;;;5037158;28;20052;-75
2022/03/09 09:50:54;;;;;;;36.22;16.63;;;;;;;;;;5036394;28;20045;-75
2022/03/09 09:53:23;;;;;;;33.70;16.48;;;;;;;;;;5034176;28;20882;-75
2022/03/09 09:55:52;;;;;;;36.25;16.08;;;;;;;;;;5033700;28;20057;-74
2022/03/09 09:58:20;;;;;;;34.88;16.50;;;;;;;;;;5035091;28;20067;-76
2022/03/09 10:00:48;;;;;;;38.90;16.13;;;;;;;;;;5033799;28;20041;-76
2022/03/09 10:03:16;;;;;;;39.47;17.42;;;;;;;;;;5032694;28;20077;-76
2022/03/09 10:05:44;;;;;;;31.63;16.08;;;;;;;;;;5035321;28;20138;-75
2022/03/09 10:08:18;;;;;;;32.90;15.52;;;;;;;;;;5034019;28;20048;-74
2022/03/09 10:10:54;;;;;;;44.40;16.95;;;;;;;;;;5032306;28;20579;-72
2022/03/09 10:13:23;;;;;;;41.92;16.92;;;;;;;;;;5035179;28;20579;-74
2022/03/09 10:16:13;;;;;;;41.00;17.52;;;;;;;;;;5033194;28;20048;-74
2022/03/09 10:18:48;;;;;;;38.60;16.60;;;;;;;;;;5036464;28;20146;-75
2022/03/09 10:21:18;;;;;;;40.45;18.52;;;;;;;;;;5038228;28;20099;-75
2022/03/09 10:23:57;;;;;;;40.97;18.35;;;;;;;;;;5036759;28;20492;-72
2022/03/09 10:26:25;;;;;;;37.83;18.60;;;;;;;;;;5038312;28;20045;-75
2022/03/09 10:29:17;;;;;;;41.83;17.77;;;;;;;;;;5032578;28;20601;-72
2022/03/09 10:32:10;;;;;;;38.97;17.38;;;;;;;;;;5033517;28;20076;-72
2022/03/09 10:34:47;;;;;;;42.35;17.77;;;;;;;;;;5034916;28;20115;-73
2022/03/09 10:37:14;;;;;;;40.38;18.15;;;;;;;;;;5035749;28;20052;-72
2022/03/09 10:39:43;;;;;;;37.38;16.40;;;;;;;;;;5035033;28;20129;-75
2022/03/09 10:42:23;;;;;;;33.45;16.25;;;;;;;;;;5034777;28;20049;-77
2022/03/09 10:44:54;;;;;;;39.78;18.08;;;;;;;;;;5036718;28;20517;-74
2022/03/09 10:47:29;;;;;;;41.35;18.95;;;;;;;;;;5038207;28;20056;-73
2022/03/09 10:50:07;;;;;;;38.88;18.83;;;;;;;;;;5034057;28;20060;-72
2022/03/09 10:52:48;;;;;;;39.78;19.00;;;;;;;;;;5032823;28;20048;-72
2022/03/09 10:55:24;;;;;;;43.72;18.95;;;;;;;;;;5037271;28;20125;-72
2022/03/09 10:57:53;;;;;;;43.85;19.13;;;;;;;;;;5037060;28;20053;-73
2022/03/09 11:00:38;;;;;;;43.20;19.80;;;;;;;;;;5036637;28;20091;-75
2022/03/09 11:03:07;;;;;;;46.78;20.10;;;;;;;;;;5038784;28;20049;-75
2022/03/09 11:05:35;;;;;;;41.83;18.88;;;;;;;;;;5036519;28;20045;-74
2022/03/09 11:08:03;;;;;;;45.35;18.10;;;;;;;;;;5031953;28;20053;-76
2022/03/09 11:10:58;;;;;;;48.53;20.00;;;;;;;;;;5033831;28;20059;-76
2022/03/09 11:13:26;;;;;;;45.55;20.35;;;;;;;;;;5034400;28;20059;-75
2022/03/09 11:15:54;;;;;;;46.45;20.88;;;;;;;;;;5031881;28;20045;-75
2022/03/09 11:18:24;;;;;;;45.95;20.10;;;;;;;;;;5030348;28;20055;-75
2022/03/09 11:20:53;;;;;;;49.55;20.42;;;;;;;;;;5035769;28;20068;-75
2022/03/09 11:23:21;;;;;;;40.65;19.33;;;;;;;;;;5027530;28;20128;-73
2022/03/09 11:26:17;;;;;;;41.05;18.58;;;;;;;;;;5029820;28;20068;-73
2022/03/09 11:29:09;;;;;;;41.35;19.15;;;;;;;;;;5030660;28;20056;-74
2022/03/09 11:31:48;;;;;;;44.55;19.08;;;;;;;;;;5028449;28;20038;-73
2022/03/09 11:34:31;;;;;;;42.42;19.02;;;;;;;;;;5036877;28;20136;-73
2022/03/09 11:37:00;;;;;;;46.60;20.20;;;;;;;;;;5036244;28;20048;-73
2022/03/09 11:39:28;;;;;;;42.80;19.27;;;;;;;;;;5038208;28;20786;-73
2022/03/09 11:42:14;;;;;;;49.08;21.00;;;;;;;;;;5034698;28;20064;-75
2022/03/09 11:44:48;;;;;;;49.25;20.65;;;;;;;;;;5037237;28;20056;-75
2022/03/09 11:47:16;;;;;;;49.63;20.70;;;;;;;;;;5035566;28;20061;-74
2022/03/09 11:50:01;;;;;;;52.38;21.60;;;;;;;;;;5033249;28;20156;-72
2022/03/09 11:52:29;;;;;;;43.60;20.35;;;;;;;;;;5034059;28;20048;-72
2022/03/09 11:54:59;;;;;;;44.25;19.23;;;;;;;;;;5034659;28;20544;-73
2022/03/09 11:57:51;;;;;;;47.60;18.63;;;;;;;;;;5034131;28;20140;-72
2022/03/09 12:00:23;;;;;;;47.85;20.40;;;;;;;;;;5036903;28;20497;-73
2022/03/09 12:02:55;;;;;;;44.58;19.55;;;;;;;;;;5034564;28;20046;-73
2022/03/09 12:05:39;;;;;;;47.72;18.63;;;;;;;;;;5034753;28;20088;-73
2022/03/09 12:08:09;;;;;;;43.13;20.17;;;;;;;;;;5031716;28;20049;-72
2022/03/09 12:10:47;;;;;;;39.67;18.20;;;;;;;;;;5036205;28;20493;-75
2022/03/09 12:13:33;;;;;;;40.67;18.60;;;;;;;;;;5037429;28;20408;-76
2022/03/09 12:16:12;;;;;;;45.55;18.95;;;;;;;;;;5030292;28;20053;-73
2022/03/09 12:18:42;;;;;;;45.80;18.42;;;;;;;;;;5033952;28;20386;-75
2022/03/09 12:21:14;;;;;;;40.30;18.98;;;;;;;;;;5033378;28;20059;-73
2022/03/09 12:24:13;;;;;;;39.83;17.23;;;;;;;;;;5033068;28;20048;-74
2022/03/09 12:27:22;;;;;;;47.85;19.90;;;;;;;;;;4992833;28;20076;-75
2022/03/09 12:29:50;;;;;;;50.03;20.08;;;;;;;;;;5034806;28;20136;-73
2022/03/09 12:32:22;;;;;;;39.78;19.50;;;;;;;;;;5033248;28;20084;-73
2022/03/09 12:34:51;;;;;;;41.58;19.20;;;;;;;;;;5034251;28;20053;-73
2022/03/09 12:37:24;;;;;;;45.47;19.95;;;;;;;;;;5032918;28;20064;-73
2022/03/09 12:39:54;;;;;;;42.85;17.80;;;;;;;;;;5039098;28;20041;-73
2022/03/09 12:42:23;;;;;;;45.05;19.38;;;;;;;;;;5036988;28;20053;-72
2022/03/09 12:44:53;;;;;;;41.42;17.80;;;;;;;;;;5040205;28;20091;-73
2022/03/09 12:47:22;;;;;;;43.17;19.67;;;;;;;;;;5041229;28;20535;-75
2022/03/09 12:49:52;;;;;;;46.67;20.15;;;;;;;;;;5038674;28;20052;-72
2022/03/09 12:52:21;;;;;;;44.35;19.85;;;;;;;;;;5035222;28;20106;-72
2022/03/09 12:54:51;;;;;;;41.08;19.75;;;;;;;;;;5041414;28;20076;-75
2022/03/09 12:57:20;;;;;;;42.53;18.23;;;;;;;;;;5039763;28;20049;-75
2022/03/09 13:00:00;;;;;;;47.45;19.88;;;;;;;;;;5037578;28;20049;-72
2022/03/09 13:02:39;;;;;;;37.70;18.00;;;;;;;;;;5035772;28;20041;-73
2022/03/09 13:05:08;;;;;;;43.95;20.08;;;;;;;;;;5037626;28;20049;-72
2022/03/09 13:07:36;;;;;;;40.03;18.40;;;;;;;;;;5036233;28;20046;-73
2022/03/09 13:10:06;;;;;;;42.83;19.73;;;;;;;;;;5033713;28;20103;-73
2022/03/09 13:12:34;;;;;;;43.55;19.75;;;;;;;;;;5040531;28;20131;-73
2022/03/09 13:15:02;;;;;;;41.45;19.65;;;;;;;;;;5037895;28;20060;-73
2022/03/09 13:17:34;;;;;;;43.33;19.23;;;;;;;;;;5037295;28;20049;-75
2022/03/09 13:20:05;;;;;;;41.97;18.13;;;;;;;;;;5036197;28;20087;-75
2022/03/09 13:22:41;;;;;;;42.60;18.90;;;;;;;;;;5035257;28;20459;-73
2022/03/09 13:25:09;;;;;;;43.70;18.95;;;;;;;;;;5032743;28;20049;-73
2022/03/09 13:27:36;;;;;;;43.70;19.88;;;;;;;;;;5036424;28;20119;-75
2022/03/09 13:30:22;;;;;;;45.85;20.67;;;;;;;;;;5037072;28;20056;-75
2022/03/09 13:32:50;;;;;;;45.28;21.38;;;;;;;;;;5038826;28;20286;-76
2022/03/09 13:35:23;;;;;;;42.72;18.75;;;;;;;;;;5040198;28;20049;-75
2022/03/09 13:38:00;;;;;;;40.92;19.38;;;;;;;;;;5036237;28;20053;-73
2022/03/09 13:40:28;;;;;;;42.03;19.95;;;;;;;;;;5037195;28;20045;-73
2022/03/09 13:42:58;;;;;;;42.83;19.63;;;;;;;;;;5035775;28;20053;-72
2022/03/09 13:45:29;;;;;;;44.58;19.70;;;;;;;;;;5036234;28;20091;-72
2022/03/09 13:47:57;;;;;;;37.65;17.83;;;;;;;;;;5037437;28;20049;-72
2022/03/09 13:50:28;;;;;;;41.42;18.48;;;;;;;;;;5035556;28;20524;-72
2022/03/09 13:52:57;;;;;;;47.60;19.35;;;;;;;;;;5035644;28;20057;-73
2022/03/09 13:55:26;;;;;;;42.95;18.90;;;;;;;;;;5037525;28;20095;-74
2022/03/09 13:58:07;;;;;;;41.70;18.67;;;;;;;;;;5039127;28;20048;-72
2022/03/09 14:00:36;;;;;;;41.85;20.15;;;;;;;;;;5032432;28;20056;-72
2022/03/09 14:03:08;;;;;;;40.90;19.20;;;;;;;;;;5037512;28;20048;-72
2022/03/09 14:05:39;;;;;;;40.20;18.38;;;;;;;;;;5032062;28;20391;-72
2022/03/09 14:08:08;;;;;;;41.78;18.45;;;;;;;;;;5038197;28;20548;-73
2022/03/09 14:10:37;;;;;;;39.90;18.05;;;;;;;;;;5035343;28;20418;-73
2022/03/09 14:13:10;;;;;;;42.92;19.92;;;;;;;;;;5031167;28;20053;-73
2022/03/09 14:15:38;;;;;;;40.03;16.88;;;;;;;;;;5032836;28;20114;-75
2022/03/09 14:18:06;;;;;;;39.30;18.48;;;;;;;;;;5030467;28;20261;-75
2022/03/09 14:20:59;;;;;;;43.67;19.38;;;;;;;;;;5035181;28;20302;-74
2022/03/09 14:23:28;;;;;;;43.20;19.95;;;;;;;;;;5029156;28;20049;-74
2022/03/09 14:25:56;;;;;;;36.42;17.10;;;;;;;;;;5033873;28;20053;-72
2022/03/09 14:28:23;;;;;;;39.85;17.38;;;;;;;;;;5038321;28;20055;-73
2022/03/09 14:30:58;;;;;;;39.83;18.73;;;;;;;;;;5034124;28;20070;-74
2022/03/09 14:33:26;;;;;;;35.50;16.10;;;;;;;;;;5032949;28;20053;-74
2022/03/09 14:35:54;;;;;;;42.03;18.48;;;;;;;;;;5040287;28;20076;-75
2022/03/09 14:38:23;;;;;;;42.75;19.05;;;;;;;;;;5034806;28;20084;-76